Blackbird — WDJ4307 — position and weather

sailwx.info

Track history (hours):
 
Tides and Currents Weather Stations Pressure Air Temp Water Temp Dewpoint Dewpoint Depression Visibility Wind Speed Wind Dir Waves Ship Positions

Blackbird

Owner: PropSF, LLC, Alameda, CA. More information available from US FCC via Universal Licensing System and Coast Guard Vessel Documentation Center.

Last reported at 2017-Dec-11 17:01 UTC. Time now 2017-Dec-13 20:53 UTC.
Position N 37°40' W 122°23'.

Length 17 m; draft 1 m.

Type: Passenger vessel. MMSI: 367776390.

Date/timePositionNaut miles runAvg speedWind from/ knotsBaromVisibWave heightAir tempDewpointWater temp
2017-Dec-11 17:01N 37°40' W 122°23'816.9
2017-Dec-11 16:31N 37°48' W 122°21'4 8.5
2017-Dec-11 16:00N 37°52' W 122°19'1122.7
2017-Dec-11 15:31N 37°41' W 122°22'714.0
2017-Dec-11 15:01N 37°48' W 122°23'816.9
2017-Dec-11 14:31N 37°55' W 122°28'1325.6
2017-Dec-11 14:00N 38°03' W 122°16'510.0
2017-Dec-11 13:28N 38°03' W 122°09'1123.3
2017-Dec-11 13:00N 38°01' W 122°23'1121.4
2017-Dec-11 12:30N 37°51' W 122°19'  
2017-Dec-09 03:33N 37°50' W 122°19'0 0.0
2017-Dec-09 03:30N 37°50' W 122°19'2 3.3
2017-Dec-09 03:01N 37°52' W 122°19'1224.4
2017-Dec-09 02:31N 37°40' W 122°22'1 1.2
2017-Dec-09 02:00N 37°40' W 122°23'918.2
2017-Dec-09 01:31N 37°49' W 122°23'1326.3
2017-Dec-09 01:00N 38°02' W 122°21'816.8
2017-Dec-09 00:30N 38°03' W 122°10'1326.6
2017-Dec-09 00:00N 37°57' W 122°26'1019.8
2017-Dec-08 23:31N 37°48' W 122°23'816.1
2017-Dec-08 23:00N 37°40' W 122°23'1 2.1
2017-Dec-08 22:30N 37°40' W 122°22'1020.3
2017-Dec-08 22:00N 37°50' W 122°19'0 0.1
2017-Dec-08 17:24N 37°51' W 122°19'1024.8
2017-Dec-08 17:01N 37°41' W 122°22'713.3
2017-Dec-08 16:30N 37°48' W 122°22'510.0
2017-Dec-08 16:01N 37°52' W 122°19'1223.7
2017-Dec-08 15:31N 37°40' W 122°22'714.8
2017-Dec-08 15:01N 37°48' W 122°23'917.0
2017-Dec-08 14:30N 37°55' W 122°28'1325.9
2017-Dec-08 14:01N 38°03' W 122°16'5 8.3
2017-Dec-08 13:23N 38°02' W 122°10'1025.7
2017-Dec-08 13:01N 38°01' W 122°22'1121.5
2017-Dec-08 12:31N 37°51' W 122°21'2 0.2
2017-Dec-08 04:02N 37°50' W 122°19'0 0.0
2017-Dec-08 04:00N 37°50' W 122°19'0 0.0
2017-Dec-08 03:30N 37°50' W 122°19'2 3.4
2017-Dec-08 03:01N 37°52' W 122°19'1224.2
2017-Dec-08 02:31N 37°40' W 122°22'1 1.3
2017-Dec-08 02:00N 37°40' W 122°23'918.1
2017-Dec-08 01:31N 37°49' W 122°23'1425.0
2017-Dec-08 00:58N 38°02' W 122°19'714.5
2017-Dec-08 00:31N 38°03' W 122°11'1326.8
2017-Dec-08 00:01N 37°57' W 122°26'1020.3
2017-Dec-07 23:31N 37°47' W 122°23'714.4
2017-Dec-07 23:00N 37°40' W 122°23'1 2.9
2017-Dec-07 22:30N 37°40' W 122°21'918.5
2017-Dec-07 22:01N 37°50' W 122°21'2 0.4
2017-Dec-07 17:26N 37°51' W 122°19'1126.2
2017-Dec-07 17:00N 37°40' W 122°22'816.7
2017-Dec-07 16:31N 37°48' W 122°22'4 8.7
2017-Dec-07 16:00N 37°52' W 122°19'1223.7
2017-Dec-07 15:31N 37°40' W 122°22'815.0
2017-Dec-07 15:00N 37°48' W 122°23'816.8
2017-Dec-07 14:30N 37°55' W 122°29'1224.1
2017-Dec-07 14:00N 38°03' W 122°17'611.1
2017-Dec-07 13:28N 38°03' W 122°09'1124.4
2017-Dec-07 13:00N 38°01' W 122°23'1121.3
2017-Dec-07 12:30N 37°51' W 122°19'0 0.0
2017-Dec-07 03:32N 37°50' W 122°19'0 0.0
2017-Dec-07 03:30N 37°50' W 122°19'2 3.3
2017-Dec-07 03:00N 37°52' W 122°19'1223.3
2017-Dec-07 02:31N 37°41' W 122°22'0 0.3
2017-Dec-07 02:01N 37°40' W 122°22'1427.6
2017-Dec-07 01:31N 37°54' W 122°25'1325.3
2017-Dec-07 01:00N 38°04' W 122°14'1 2.7
2017-Dec-07 00:30N 38°03' W 122°12'1325.3
2017-Dec-07 00:00N 37°57' W 122°26'1019.9
2017-Dec-06 23:31N 37°48' W 122°23'815.4
2017-Dec-06 23:00N 37°40' W 122°23'713.7
2017-Dec-06 22:31N 37°47' W 122°21'4 8.7
2017-Dec-06 22:00N 37°50' W 122°19'0 0.0
2017-Dec-06 21:30N 37°50' W 122°19'  
2017-Dec-02 23:05N 37°50' W 122°19'111.1
2017-Dec-02 23:01N 37°51' W 122°20'4 8.4
2017-Dec-02 22:31N 37°54' W 122°22'1 0.0
2017-Dec-02 01:31N 37°55' W 122°22'0 9.2
2017-Dec-02 01:30N 37°55' W 122°22'714.1
2017-Dec-02 01:00N 38°02' W 122°19'611.5
2017-Dec-02 00:30N 38°03' W 122°12'1224.7
2017-Dec-02 00:00N 37°57' W 122°26'918.8
2017-Dec-01 23:31N 37°48' W 122°23'917.1
2017-Dec-01 23:00N 37°40' W 122°23'1 1.5
2017-Dec-01 22:30N 37°40' W 122°22'612.9
2017-Dec-01 22:01N 37°47' W 122°23'5 9.9
2017-Dec-01 21:31N 37°50' W 122°19'  
Track history (hours):
 
Tides and Currents Weather Stations Pressure Air Temp Water Temp Dewpoint Dewpoint Depression Visibility Wind Speed Wind Dir Waves Ship Positions

Blackbird

Owner: PropSF, LLC, Alameda, CA. More information available from US FCC via Universal Licensing System and Coast Guard Vessel Documentation Center.

Last reported at 2017-Dec-11 17:01 UTC. Time now 2017-Dec-13 20:53 UTC.
Position N 37°40' W 122°23'.

Length 17 m; draft 1 m.

Type: Passenger vessel. MMSI: 367776390.

Date/timePositionNaut miles runAvg speedWind from/ knotsBaromVisibWave heightAir tempDewpointWater temp
2017-Dec-11 17:01N 37°40' W 122°23'816.9
2017-Dec-11 16:31N 37°48' W 122°21'4 8.5
2017-Dec-11 16:00N 37°52' W 122°19'1122.7
2017-Dec-11 15:31N 37°41' W 122°22'714.0
2017-Dec-11 15:01N 37°48' W 122°23'816.9
2017-Dec-11 14:31N 37°55' W 122°28'1325.6
2017-Dec-11 14:00N 38°03' W 122°16'510.0
2017-Dec-11 13:28N 38°03' W 122°09'1123.3
2017-Dec-11 13:00N 38°01' W 122°23'1121.4
2017-Dec-11 12:30N 37°51' W 122°19'  
2017-Dec-09 03:33N 37°50' W 122°19'0 0.0
2017-Dec-09 03:30N 37°50' W 122°19'2 3.3
2017-Dec-09 03:01N 37°52' W 122°19'1224.4
2017-Dec-09 02:31N 37°40' W 122°22'1 1.2
2017-Dec-09 02:00N 37°40' W 122°23'918.2
2017-Dec-09 01:31N 37°49' W 122°23'1326.3
2017-Dec-09 01:00N 38°02' W 122°21'816.8
2017-Dec-09 00:30N 38°03' W 122°10'1326.6
2017-Dec-09 00:00N 37°57' W 122°26'1019.8
2017-Dec-08 23:31N 37°48' W 122°23'816.1
2017-Dec-08 23:00N 37°40' W 122°23'1 2.1
2017-Dec-08 22:30N 37°40' W 122°22'1020.3
2017-Dec-08 22:00N 37°50' W 122°19'0 0.1
2017-Dec-08 17:24N 37°51' W 122°19'1024.8
2017-Dec-08 17:01N 37°41' W 122°22'713.3
2017-Dec-08 16:30N 37°48' W 122°22'510.0
2017-Dec-08 16:01N 37°52' W 122°19'1223.7
2017-Dec-08 15:31N 37°40' W 122°22'714.8
2017-Dec-08 15:01N 37°48' W 122°23'917.0
2017-Dec-08 14:30N 37°55' W 122°28'1325.9
2017-Dec-08 14:01N 38°03' W 122°16'5 8.3
2017-Dec-08 13:23N 38°02' W 122°10'1025.7
2017-Dec-08 13:01N 38°01' W 122°22'1121.5
2017-Dec-08 12:31N 37°51' W 122°21'2 0.2
2017-Dec-08 04:02N 37°50' W 122°19'0 0.0
2017-Dec-08 04:00N 37°50' W 122°19'0 0.0
2017-Dec-08 03:30N 37°50' W 122°19'2 3.4
2017-Dec-08 03:01N 37°52' W 122°19'1224.2
2017-Dec-08 02:31N 37°40' W 122°22'1 1.3
2017-Dec-08 02:00N 37°40' W 122°23'918.1
2017-Dec-08 01:31N 37°49' W 122°23'1425.0
2017-Dec-08 00:58N 38°02' W 122°19'714.5
2017-Dec-08 00:31N 38°03' W 122°11'1326.8
2017-Dec-08 00:01N 37°57' W 122°26'1020.3
2017-Dec-07 23:31N 37°47' W 122°23'714.4
2017-Dec-07 23:00N 37°40' W 122°23'1 2.9
2017-Dec-07 22:30N 37°40' W 122°21'918.5
2017-Dec-07 22:01N 37°50' W 122°21'2 0.4
2017-Dec-07 17:26N 37°51' W 122°19'1126.2
2017-Dec-07 17:00N 37°40' W 122°22'816.7
2017-Dec-07 16:31N 37°48' W 122°22'4 8.7
2017-Dec-07 16:00N 37°52' W 122°19'1223.7
2017-Dec-07 15:31N 37°40' W 122°22'815.0
2017-Dec-07 15:00N 37°48' W 122°23'816.8
2017-Dec-07 14:30N 37°55' W 122°29'1224.1
2017-Dec-07 14:00N 38°03' W 122°17'611.1
2017-Dec-07 13:28N 38°03' W 122°09'1124.4
2017-Dec-07 13:00N 38°01' W 122°23'1121.3
2017-Dec-07 12:30N 37°51' W 122°19'0 0.0
2017-Dec-07 03:32N 37°50' W 122°19'0 0.0
2017-Dec-07 03:30N 37°50' W 122°19'2 3.3
2017-Dec-07 03:00N 37°52' W 122°19'1223.3
2017-Dec-07 02:31N 37°41' W 122°22'0 0.3
2017-Dec-07 02:01N 37°40' W 122°22'1427.6
2017-Dec-07 01:31N 37°54' W 122°25'1325.3
2017-Dec-07 01:00N 38°04' W 122°14'1 2.7
2017-Dec-07 00:30N 38°03' W 122°12'1325.3
2017-Dec-07 00:00N 37°57' W 122°26'1019.9
2017-Dec-06 23:31N 37°48' W 122°23'815.4
2017-Dec-06 23:00N 37°40' W 122°23'713.7
2017-Dec-06 22:31N 37°47' W 122°21'4 8.7
2017-Dec-06 22:00N 37°50' W 122°19'0 0.0
2017-Dec-06 21:30N 37°50' W 122°19'  
2017-Dec-02 23:05N 37°50' W 122°19'111.1
2017-Dec-02 23:01N 37°51' W 122°20'4 8.4
2017-Dec-02 22:31N 37°54' W 122°22'1 0.0
2017-Dec-02 01:31N 37°55' W 122°22'0 9.2
2017-Dec-02 01:30N 37°55' W 122°22'714.1
2017-Dec-02 01:00N 38°02' W 122°19'611.5
2017-Dec-02 00:30N 38°03' W 122°12'1224.7
2017-Dec-02 00:00N 37°57' W 122°26'918.8
2017-Dec-01 23:31N 37°48' W 122°23'917.1
2017-Dec-01 23:00N 37°40' W 122°23'1 1.5
2017-Dec-01 22:30N 37°40' W 122°22'612.9
2017-Dec-01 22:01N 37°47' W 122°23'5 9.9
2017-Dec-01 21:31N 37°50' W 122°19'  

Dump ship's entire track history